createdAt,value
2023-04-01T00:00:59.291Z,99.02
2023-04-01T00:01:59.295Z,98.82
2023-04-01T00:02:59.381Z,98.92
2023-04-01T00:03:59.347Z,98.86
2023-04-01T00:04:59.245Z,98.86
2023-04-01T00:05:59.257Z,98.96
2023-04-01T00:06:59.228Z,98.82
2023-04-01T00:07:59.237Z,98.86
2023-04-01T00:08:59.206Z,98.86
2023-04-01T00:09:59.172Z,99.02
2023-04-01T00:10:59.217Z,98.71
2023-04-01T00:11:59.211Z,99.07
2023-04-01T00:12:59.179Z,99.02
2023-04-01T00:13:59.134Z,99.07
2023-04-01T00:14:59.143Z,99.07
2023-04-01T00:16:00.346Z,99.63
2023-04-01T00:17:00.182Z,99.79
2023-04-01T00:17:59.169Z,99.58
2023-04-01T00:18:59.089Z,99.38
2023-04-01T00:19:59.061Z,99.38
2023-04-01T00:20:59.052Z,99.68
2023-04-01T00:21:59.091Z,99.58
2023-04-01T00:22:59.007Z,99.79
2023-04-01T00:24:00.046Z,99.68
2023-04-01T00:24:59.088Z,99.89
2023-04-01T00:25:58.984Z,99.79
2023-04-01T00:26:59.006Z,99.48
2023-04-01T00:27:59.051Z,99.79
2023-04-01T00:28:58.971Z,99.99
2023-04-01T00:29:58.943Z,99.99
2023-04-01T00:30:58.961Z,99.99
2023-04-01T00:31:59.243Z,99.99
2023-04-01T00:32:59.002Z,99.99
2023-04-01T00:33:58.927Z,99.99
2023-04-01T00:34:58.918Z,99.99
2023-04-01T00:35:58.888Z,99.99
2023-04-01T00:36:58.867Z,99.99
2023-04-01T00:37:58.893Z,99.99
2023-04-01T00:38:58.858Z,99.99
2023-04-01T00:39:58.878Z,99.99
2023-04-01T00:40:58.849Z,99.99
2023-04-01T00:41:58.818Z,99.99
2023-04-01T00:42:58.800Z,99.99
2023-04-01T00:43:58.818Z,99.99
2023-04-01T00:44:58.794Z,99.99
2023-04-01T00:45:58.747Z,99.99
2023-04-01T00:46:59.833Z,99.99
2023-04-01T00:47:58.768Z,99.99
2023-04-01T00:48:58.758Z,99.99
2023-04-01T00:49:58.764Z,99.99
2023-04-01T00:50:58.748Z,99.99
2023-04-01T00:51:58.698Z,99.99
2023-04-01T00:52:58.698Z,99.99
2023-04-01T00:53:58.703Z,99.99
2023-04-01T00:54:58.696Z,99.99
2023-04-01T00:55:58.685Z,99.99
2023-04-01T00:56:58.667Z,99.99
2023-04-01T00:57:58.652Z,99.99
2023-04-01T00:58:58.654Z,99.99
2023-04-01T00:59:58.609Z,99.99
2023-04-01T01:00:58.652Z,99.99
2023-04-01T01:01:58.655Z,99.99
2023-04-01T01:02:58.610Z,99.99
2023-04-01T01:03:58.594Z,99.99
2023-04-01T01:04:58.582Z,99.99
2023-04-01T01:05:58.554Z,99.99
2023-04-01T01:06:58.562Z,99.99
2023-04-01T01:07:58.558Z,99.99
2023-04-01T01:08:58.538Z,99.99
2023-04-01T01:09:58.525Z,99.99
2023-04-01T01:10:58.508Z,99.99
2023-04-01T01:11:58.493Z,99.99
2023-04-01T01:12:58.483Z,99.99
2023-04-01T01:13:58.486Z,99.99
2023-04-01T01:14:58.467Z,99.99
2023-04-01T01:15:58.437Z,99.99
2023-04-01T01:16:58.519Z,99.99
2023-04-01T01:17:58.465Z,99.99
2023-04-01T01:18:58.397Z,99.99
2023-04-01T01:19:58.406Z,99.99
2023-04-01T01:20:58.415Z,99.99
2023-04-01T01:21:58.364Z,99.99
2023-04-01T01:22:58.380Z,99.99
2023-04-01T01:23:58.381Z,99.99
2023-04-01T01:24:58.362Z,99.99
2023-04-01T01:25:58.319Z,99.99
2023-04-01T01:26:58.321Z,99.99
2023-04-01T01:27:58.342Z,99.99
2023-04-01T01:28:58.305Z,99.99
2023-04-01T01:29:58.279Z,99.99
2023-04-01T01:30:58.297Z,99.99
2023-04-01T01:31:58.280Z,99.99
2023-04-01T01:32:58.291Z,99.99
2023-04-01T01:33:58.227Z,99.99
2023-04-01T01:34:58.245Z,99.99
2023-04-01T01:35:58.257Z,99.99
2023-04-01T01:36:58.204Z,99.99
2023-04-01T01:37:58.242Z,99.99
2023-04-01T01:38:58.208Z,99.99
2023-04-01T01:39:58.155Z,99.99
2023-04-01T01:40:58.162Z,99.99
2023-04-01T01:41:58.242Z,99.99
2023-04-01T01:42:58.139Z,99.99
2023-04-01T01:43:58.154Z,99.99
2023-04-01T01:44:58.134Z,99.99
2023-04-01T01:45:58.127Z,99.99
2023-04-01T01:46:58.094Z,99.99
2023-04-01T01:47:58.183Z,99.99
2023-04-01T01:48:58.097Z,99.99
2023-04-01T01:49:58.065Z,99.99
2023-04-01T01:50:58.071Z,99.99
2023-04-01T01:51:58.040Z,99.99
2023-04-01T01:52:58.032Z,99.99
2023-04-01T01:53:58.051Z,99.99
2023-04-01T01:54:58.025Z,99.99
2023-04-01T01:55:57.993Z,99.99
2023-04-01T01:56:58.061Z,99.99
2023-04-01T01:57:58.001Z,99.99
2023-04-01T01:58:57.976Z,99.99
2023-04-01T01:59:57.939Z,99.99
2023-04-01T02:00:57.937Z,99.99
2023-04-01T02:01:58.081Z,99.99
2023-04-01T02:02:57.981Z,99.99
2023-04-01T02:03:57.904Z,99.99
2023-04-01T02:04:57.948Z,99.99
2023-04-01T02:05:57.916Z,99.99
2023-04-01T02:06:57.864Z,99.99
2023-04-01T02:07:57.881Z,99.99
2023-04-01T02:08:57.899Z,99.99
2023-04-01T02:09:57.826Z,99.99
2023-04-01T02:10:57.876Z,99.99
2023-04-01T02:11:57.836Z,99.99
2023-04-01T02:12:57.847Z,99.99
2023-04-01T02:13:57.800Z,99.99
2023-04-01T02:14:57.810Z,99.99
2023-04-01T02:15:57.801Z,99.99
2023-04-01T02:16:57.760Z,99.99
2023-04-01T02:17:57.889Z,99.99
2023-04-01T02:18:57.769Z,99.99
2023-04-01T02:19:57.719Z,99.99
2023-04-01T02:20:57.725Z,99.99
2023-04-01T02:21:57.751Z,99.99
2023-04-01T02:22:57.688Z,99.99
2023-04-01T02:23:57.718Z,99.99
2023-04-01T02:24:57.693Z,99.99
2023-04-01T02:25:57.651Z,99.99
2023-04-01T02:26:57.654Z,99.99
2023-04-01T02:27:57.694Z,99.99
2023-04-01T02:28:57.652Z,99.99
2023-04-01T02:29:57.628Z,99.99
2023-04-01T02:30:57.667Z,99.99
2023-04-01T02:31:57.646Z,99.99
2023-04-01T02:32:57.702Z,99.99
2023-04-01T02:33:57.580Z,99.99
2023-04-01T02:34:57.567Z,99.99
2023-04-01T02:35:57.585Z,99.99
2023-04-01T02:36:57.566Z,99.99
2023-04-01T02:37:57.541Z,99.99
2023-04-01T02:38:57.554Z,99.99
2023-04-01T02:39:57.514Z,99.99
2023-04-01T02:40:57.499Z,99.99
2023-04-01T02:41:57.516Z,99.99
2023-04-01T02:42:57.550Z,99.99
2023-04-01T02:43:57.452Z,99.99
2023-04-01T02:44:57.450Z,99.99
2023-04-01T02:45:58.481Z,99.99
2023-04-01T02:46:57.505Z,99.99
2023-04-01T02:47:58.518Z,99.99
2023-04-01T02:48:57.416Z,99.99
2023-04-01T02:49:57.395Z,99.99
2023-04-01T02:50:57.431Z,99.99
2023-04-01T02:51:57.415Z,99.99
2023-04-01T02:52:57.388Z,99.99
2023-04-01T02:53:57.366Z,99.99
2023-04-01T02:54:57.367Z,99.99
2023-04-01T02:55:57.349Z,99.99
2023-04-01T02:56:57.425Z,99.99
2023-04-01T02:57:57.343Z,99.99
2023-04-01T02:58:57.332Z,99.99
2023-04-01T02:59:57.327Z,99.83
2023-04-01T03:00:57.350Z,99.99
2023-04-01T03:01:57.331Z,99.99
2023-04-01T03:02:57.531Z,99.99
2023-04-01T03:03:57.255Z,99.99
2023-04-01T03:04:57.238Z,99.77
2023-04-01T03:05:57.268Z,99.99
2023-04-01T03:06:57.238Z,99.93
2023-04-01T03:07:57.221Z,99.88
2023-04-01T03:08:57.219Z,99.83
2023-04-01T03:09:57.216Z,99.52
2023-04-01T03:10:59.549Z,99.88
2023-04-01T03:11:57.190Z,99.99
2023-04-01T03:12:57.193Z,99.99
2023-04-01T03:13:57.145Z,99.99
2023-04-01T03:14:57.146Z,99.57
2023-04-01T03:15:58.167Z,99.98
2023-04-01T03:16:57.245Z,99.88
2023-04-01T03:17:57.181Z,99.52
2023-04-01T03:18:57.114Z,99.63
2023-04-01T03:19:57.075Z,99.47
2023-04-01T03:20:57.094Z,99.67
2023-04-01T03:21:57.078Z,99.93
2023-04-01T03:22:57.088Z,99.83
2023-04-01T03:23:57.040Z,99.77
2023-04-01T03:24:57.044Z,99.52
2023-04-01T03:25:57.036Z,99.11
2023-04-01T03:27:31.604Z,98.80
2023-04-01T03:27:57.058Z,99.42
2023-04-01T03:28:57.001Z,99.32
2023-04-01T03:29:57.063Z,99.37
2023-04-01T03:30:57.010Z,99.11
2023-04-01T03:31:56.965Z,99.52
2023-04-01T03:32:57.033Z,99.83
2023-04-01T03:33:56.934Z,99.63
2023-04-01T03:34:56.922Z,99.63
2023-04-01T03:35:56.930Z,99.93
2023-04-01T03:36:56.898Z,99.83
2023-04-01T03:37:56.888Z,99.63
2023-04-01T03:38:56.873Z,99.63
2023-04-01T03:39:57.891Z,99.77
2023-04-01T03:40:56.881Z,99.63
2023-04-01T03:41:56.840Z,99.63
2023-04-01T03:42:56.899Z,99.67
2023-04-01T03:43:56.826Z,99.57
2023-04-01T03:44:56.824Z,99.37
2023-04-01T03:45:56.845Z,99.67
2023-04-01T03:46:56.792Z,99.57
2023-04-01T03:47:56.850Z,99.26
2023-04-01T03:48:56.792Z,99.57
2023-04-01T03:49:56.797Z,99.57
2023-04-01T03:50:56.750Z,99.42
2023-04-01T03:51:56.731Z,99.42
2023-04-01T03:52:56.734Z,99.57
2023-04-01T03:53:56.729Z,99.47
2023-04-01T03:54:56.708Z,99.98
2023-04-01T03:55:56.711Z,99.98
2023-04-01T03:56:56.709Z,99.93
2023-04-01T03:57:56.671Z,99.77
2023-04-01T03:58:56.718Z,99.98
2023-04-01T03:59:56.665Z,99.57
2023-04-01T04:00:56.656Z,99.57
2023-04-01T04:01:56.659Z,99.77
2023-04-01T04:02:56.658Z,99.77
2023-04-01T04:03:56.711Z,99.57
2023-04-01T04:04:56.603Z,99.37
2023-04-01T04:05:56.591Z,99.88
2023-04-01T04:06:56.583Z,99.47
2023-04-01T04:07:56.587Z,99.77
2023-04-01T04:08:56.593Z,99.47
2023-04-01T04:09:56.557Z,99.47
2023-04-01T04:10:56.554Z,99.57
2023-04-01T04:11:56.532Z,99.57
2023-04-01T04:12:56.513Z,99.73
2023-04-01T04:13:57.993Z,99.57
2023-04-01T04:14:57.505Z,99.77
2023-04-01T04:15:56.494Z,99.99
2023-04-01T04:16:56.498Z,99.99
2023-04-01T04:17:56.495Z,99.99
2023-04-01T04:18:56.442Z,99.88
2023-04-01T04:19:57.466Z,99.88
2023-04-01T04:20:56.418Z,99.99
2023-04-01T04:21:56.422Z,99.99
2023-04-01T04:22:56.424Z,99.99
2023-04-01T04:23:56.408Z,99.77
2023-04-01T04:24:56.409Z,99.67
2023-04-01T04:25:56.371Z,99.98
2023-04-01T04:26:56.369Z,99.77
2023-04-01T04:27:57.354Z,99.77
2023-04-01T04:28:56.376Z,99.99
2023-04-01T04:29:56.360Z,99.88
2023-04-01T04:30:56.321Z,99.77
2023-04-01T04:31:56.331Z,99.77
2023-04-01T04:32:56.381Z,99.88
2023-04-01T04:33:56.288Z,99.99
2023-04-01T04:34:56.315Z,99.99
2023-04-01T04:35:56.324Z,99.77
2023-04-01T04:36:56.321Z,99.72
2023-04-01T04:37:56.261Z,99.47
2023-04-01T04:38:56.242Z,99.82
2023-04-01T04:39:56.244Z,99.51
2023-04-01T04:40:56.224Z,99.99
2023-04-01T04:41:56.199Z,99.72
2023-04-01T04:42:56.230Z,99.82
2023-04-01T04:43:56.175Z,99.99
2023-04-01T04:44:56.168Z,99.72
2023-04-01T04:45:56.181Z,99.77
2023-04-01T04:46:58.232Z,99.57
2023-04-01T04:47:56.185Z,99.57
2023-04-01T04:48:56.112Z,99.88
2023-04-01T04:49:56.115Z,99.88
2023-04-01T04:50:56.106Z,99.57
2023-04-01T04:51:56.082Z,99.77
2023-04-01T04:52:56.106Z,99.67
2023-04-01T04:53:56.081Z,99.47
2023-04-01T04:54:56.043Z,99.99
2023-04-01T04:55:56.068Z,99.57
2023-04-01T04:56:56.124Z,99.57
2023-04-01T04:57:56.038Z,99.88
2023-04-01T04:58:56.005Z,99.57
2023-04-01T04:59:55.994Z,99.41
2023-04-01T05:00:56.030Z,99.62
2023-04-01T05:01:55.981Z,99.82
2023-04-01T05:02:56.074Z,99.51
2023-04-01T05:03:55.962Z,99.99
2023-04-01T05:04:55.951Z,99.88
2023-04-01T05:05:55.951Z,99.62
2023-04-01T05:06:55.941Z,99.62
2023-04-01T05:07:55.950Z,99.62
2023-04-01T05:08:55.900Z,99.47
2023-04-01T05:09:55.917Z,99.82
2023-04-01T05:10:55.895Z,99.72
2023-04-01T05:11:55.873Z,99.77
2023-04-01T05:12:55.866Z,99.77
2023-04-01T05:13:55.856Z,99.72
2023-04-01T05:14:55.847Z,99.88
2023-04-01T05:15:55.826Z,99.93
2023-04-01T05:16:55.835Z,99.51
2023-04-01T05:17:55.891Z,99.82
2023-04-01T05:18:55.801Z,99.82
2023-04-01T05:19:55.786Z,99.72
2023-04-01T05:20:55.770Z,99.41
2023-04-01T05:21:55.812Z,99.62
2023-04-01T05:22:55.771Z,99.82
2023-04-01T05:23:55.735Z,99.62
2023-04-01T05:24:55.732Z,99.82
2023-04-01T05:25:55.714Z,99.37
2023-04-01T05:26:56.978Z,99.82
2023-04-01T05:27:56.695Z,99.62
2023-04-01T05:28:55.708Z,99.99
2023-04-01T05:29:55.679Z,99.93
2023-04-01T05:30:55.725Z,99.82
2023-04-01T05:31:55.683Z,99.93
2023-04-01T05:32:55.672Z,99.99
2023-04-01T05:33:55.638Z,99.82
2023-04-01T05:34:55.621Z,99.99
2023-04-01T05:35:55.672Z,99.62
2023-04-01T05:36:55.604Z,99.93
2023-04-01T05:37:55.614Z,99.99
2023-04-01T05:38:55.567Z,99.93
2023-04-01T05:39:55.559Z,99.88
2023-04-01T05:40:55.560Z,99.93
2023-04-01T05:41:55.551Z,99.93
2023-04-01T05:42:55.535Z,99.98
2023-04-01T05:43:55.514Z,99.99
2023-04-01T05:44:55.495Z,99.77
2023-04-01T05:45:55.581Z,99.99
2023-04-01T05:46:55.505Z,99.88
2023-04-01T05:47:55.557Z,99.99
2023-04-01T05:48:55.491Z,99.93
2023-04-01T05:49:55.455Z,99.99
2023-04-01T05:50:55.430Z,99.82
2023-04-01T05:51:55.467Z,99.62
2023-04-01T05:52:55.405Z,99.99
2023-04-01T05:53:55.403Z,99.99
2023-04-01T05:54:55.404Z,99.99
2023-04-01T05:55:55.379Z,99.98
2023-04-01T05:56:55.423Z,99.67
2023-04-01T05:57:55.368Z,99.62
2023-04-01T05:58:55.357Z,99.51
2023-04-01T05:59:55.343Z,99.99
2023-04-01T06:01:08.069Z,99.88
2023-04-01T06:01:58.377Z,99.62
2023-04-01T06:02:55.417Z,99.82
2023-04-01T06:03:55.513Z,99.93
2023-04-01T06:04:55.336Z,99.99
2023-04-01T06:05:55.272Z,99.93
2023-04-01T06:06:55.294Z,99.99
2023-04-01T06:07:55.251Z,99.62
2023-04-01T06:08:55.237Z,99.72
2023-04-01T06:09:55.245Z,99.99
2023-04-01T06:10:55.230Z,99.99
2023-04-01T06:11:55.229Z,99.99
2023-04-01T06:12:55.201Z,99.93
2023-04-01T06:13:55.195Z,99.82
2023-04-01T06:14:55.182Z,99.82
2023-04-01T06:15:55.200Z,99.72
2023-04-01T06:16:55.173Z,99.99
2023-04-01T06:17:55.206Z,99.88
2023-04-01T06:18:55.152Z,99.99
2023-04-01T06:19:55.128Z,99.67
2023-04-01T06:20:55.128Z,99.99
2023-04-01T06:21:55.106Z,99.72
2023-04-01T06:22:55.111Z,99.77
2023-04-01T06:23:55.081Z,99.77
2023-04-01T06:24:55.089Z,99.67
2023-04-01T06:25:55.099Z,99.77
2023-04-01T06:26:55.055Z,99.67
2023-04-01T06:27:55.059Z,99.67
2023-04-01T06:28:55.058Z,99.77
2023-04-01T06:29:55.021Z,99.73
2023-04-01T06:30:55.018Z,99.98
2023-04-01T06:31:55.026Z,99.77
2023-04-01T06:32:55.027Z,99.42
2023-04-01T06:33:55.004Z,99.93
2023-04-01T06:34:54.988Z,99.32
2023-04-01T06:35:55.020Z,98.91
2023-04-01T06:36:54.944Z,98.86
2023-04-01T06:37:54.977Z,98.80
2023-04-01T06:38:54.949Z,98.39
2023-04-01T06:39:54.921Z,98.25
2023-04-01T06:40:54.908Z,98.08
2023-04-01T06:41:54.897Z,97.99
2023-04-01T06:42:54.894Z,98.39
2023-04-01T06:43:54.882Z,98.08
2023-04-01T06:44:54.862Z,97.78
2023-04-01T06:45:54.884Z,97.99
2023-04-01T06:46:54.855Z,97.78
2023-04-01T06:47:54.887Z,97.99
2023-04-01T06:48:54.844Z,97.88
2023-04-01T06:49:54.843Z,97.67
2023-04-01T06:50:54.803Z,97.78
2023-04-01T06:51:54.815Z,97.99
2023-04-01T06:52:54.787Z,97.78
2023-04-01T06:53:55.774Z,97.88
2023-04-01T06:54:54.765Z,97.67
2023-04-01T06:55:54.745Z,97.88
2023-04-01T06:56:54.753Z,97.53
2023-04-01T06:57:55.751Z,97.02
2023-04-01T06:58:54.737Z,97.47
2023-04-01T06:59:54.729Z,97.42
2023-04-01T07:00:54.709Z,97.22
2023-04-01T07:01:54.692Z,97.53
2023-04-01T07:02:54.827Z,97.32
2023-04-01T07:03:54.717Z,97.32
2023-04-01T07:04:54.678Z,97.53
2023-04-01T07:05:54.660Z,97.22
2023-04-01T07:06:54.640Z,97.63
2023-04-01T07:07:54.626Z,96.81
2023-04-01T07:08:54.606Z,96.77
2023-04-01T07:09:54.603Z,96.81
2023-04-01T07:10:54.608Z,96.70
2023-04-01T07:11:54.583Z,96.70
2023-04-01T07:12:54.582Z,96.50
2023-04-01T07:13:54.548Z,96.50
2023-04-01T07:14:54.548Z,96.70
2023-04-01T07:15:56.016Z,97.53
2023-04-01T07:16:54.542Z,96.70
2023-04-01T07:17:54.583Z,96.97
2023-04-01T07:18:54.511Z,96.70
2023-04-01T07:19:54.485Z,96.50
2023-04-01T07:20:54.511Z,96.91
2023-04-01T07:21:54.495Z,96.09
2023-04-01T07:22:54.465Z,96.50
2023-04-01T07:23:54.438Z,96.50
2023-04-01T07:24:54.412Z,95.94
2023-04-01T07:25:55.612Z,95.84
2023-04-01T07:26:54.395Z,96.04
2023-04-01T07:27:54.418Z,95.94
2023-04-01T07:28:54.398Z,96.04
2023-04-01T07:29:54.387Z,95.84
2023-04-01T07:30:54.377Z,95.43
2023-04-01T07:31:54.352Z,95.84
2023-04-01T07:32:54.366Z,95.43
2023-04-01T07:33:54.330Z,95.23
2023-04-01T07:34:54.306Z,95.18
2023-04-01T07:35:54.315Z,95.28
2023-04-01T07:36:54.312Z,95.07
2023-04-01T07:37:54.281Z,95.39
2023-04-01T07:38:54.308Z,95.59
2023-04-01T07:39:54.266Z,96.00
2023-04-01T07:40:54.255Z,95.07
2023-04-01T07:41:54.258Z,94.77
2023-04-01T07:42:54.235Z,94.61
2023-04-01T07:43:54.216Z,95.94
2023-04-01T07:44:54.218Z,95.28
2023-04-01T07:45:54.197Z,94.98
2023-04-01T07:46:54.171Z,94.46
2023-04-01T07:47:54.214Z,94.56
2023-04-01T07:48:54.175Z,94.46
2023-04-01T07:49:54.138Z,94.05
2023-04-01T07:50:54.138Z,94.46
2023-04-01T07:51:54.120Z,93.95
2023-04-01T07:52:54.121Z,94.15
2023-04-01T07:53:54.124Z,93.74
2023-04-01T07:54:54.079Z,94.26
2023-04-01T07:55:54.096Z,94.01
2023-04-01T07:56:54.110Z,94.01
2023-04-01T07:57:54.048Z,94.05
2023-04-01T07:58:54.034Z,94.32
2023-04-01T07:59:55.045Z,94.32
2023-04-01T08:00:54.029Z,94.21
2023-04-01T08:01:54.004Z,94.42
2023-04-01T08:02:54.055Z,93.71
2023-04-01T08:03:54.192Z,93.45
2023-04-01T08:04:54.032Z,93.30
2023-04-01T08:05:53.992Z,92.90
2023-04-01T08:06:53.958Z,92.53
2023-04-01T08:07:53.957Z,93.15
2023-04-01T08:08:53.964Z,92.83
2023-04-01T08:09:53.919Z,92.63
2023-04-01T08:10:53.923Z,92.59
2023-04-01T08:11:53.898Z,92.28
2023-04-01T08:12:53.895Z,92.49
2023-04-01T08:13:53.867Z,92.38
2023-04-01T08:14:53.904Z,92.24
2023-04-01T08:15:53.848Z,92.03
2023-04-01T08:16:54.664Z,91.31
2023-04-01T08:17:54.876Z,91.22
2023-04-01T08:18:53.818Z,91.11
2023-04-01T08:19:53.812Z,91.22
2023-04-01T08:20:53.792Z,90.81
2023-04-01T08:21:53.815Z,90.81
2023-04-01T08:22:53.769Z,90.75
2023-04-01T08:23:53.753Z,91.05
2023-04-01T08:24:53.768Z,91.36
2023-04-01T08:25:53.751Z,91.22
2023-04-01T08:26:53.766Z,91.26
2023-04-01T08:27:53.723Z,91.26
2023-04-01T08:28:53.695Z,91.56
2023-04-01T08:29:53.683Z,91.22
2023-04-01T08:30:53.682Z,91.56
2023-04-01T08:31:53.715Z,90.39
2023-04-01T08:32:53.751Z,91.16
2023-04-01T08:33:53.655Z,91.36
2023-04-01T08:34:53.629Z,91.52
2023-04-01T08:35:53.623Z,90.70
2023-04-01T08:36:53.641Z,90.81
2023-04-01T08:37:53.587Z,91.11
2023-04-01T08:38:53.602Z,90.70
2023-04-01T08:39:53.588Z,90.70
2023-04-01T08:40:53.562Z,90.15
2023-04-01T08:41:53.554Z,90.66
2023-04-01T08:42:53.550Z,90.66
2023-04-01T08:43:53.596Z,89.70
2023-04-01T08:44:53.527Z,90.52
2023-04-01T08:45:53.548Z,89.90
2023-04-01T08:46:53.509Z,90.68
2023-04-01T08:47:53.499Z,90.47
2023-04-01T08:48:53.469Z,89.25
2023-04-01T08:49:53.450Z,89.56
2023-04-01T08:50:53.480Z,89.15
2023-04-01T08:51:53.437Z,87.92
2023-04-01T08:52:53.441Z,89.09
2023-04-01T08:53:53.428Z,90.62
2023-04-01T08:54:53.399Z,90.72
2023-04-01T08:55:53.392Z,90.11
2023-04-01T08:56:53.400Z,90.45
2023-04-01T08:57:54.647Z,90.82
2023-04-01T08:58:53.380Z,90.06
2023-04-01T08:59:53.334Z,89.65
2023-04-01T09:00:53.362Z,89.61
2023-04-01T09:01:53.409Z,88.02
2023-04-01T09:02:53.374Z,89.76
2023-04-01T09:03:53.437Z,89.06
2023-04-01T09:04:53.303Z,88.85
2023-04-01T09:05:53.273Z,88.10
2023-04-01T09:06:53.263Z,86.88
2023-04-01T09:07:53.278Z,86.88
2023-04-01T09:08:53.249Z,85.86
2023-04-01T09:09:53.233Z,86.91
2023-04-01T09:10:53.291Z,87.23
2023-04-01T09:11:53.309Z,86.88
2023-04-01T09:12:54.190Z,86.57
2023-04-01T09:13:53.191Z,86.06
2023-04-01T09:14:53.177Z,86.73
2023-04-01T09:15:53.204Z,86.63
2023-04-01T09:16:53.155Z,86.22
2023-04-01T09:17:53.288Z,85.55
2023-04-01T09:18:53.138Z,86.77
2023-04-01T09:19:53.158Z,86.91
2023-04-01T09:20:53.125Z,87.32
2023-04-01T09:21:53.104Z,87.82
2023-04-01T09:22:53.109Z,89.31
2023-04-01T09:23:53.089Z,88.90
2023-04-01T09:24:53.093Z,89.51
2023-04-01T09:25:53.075Z,88.49
2023-04-01T09:26:53.064Z,87.98
2023-04-01T09:28:25.093Z,87.94
2023-04-01T09:28:53.060Z,88.35
2023-04-01T09:29:53.041Z,87.32
2023-04-01T09:30:52.998Z,87.32
2023-04-01T09:31:53.087Z,87.37
2023-04-01T09:32:53.034Z,88.18
2023-04-01T09:33:52.958Z,88.45
2023-04-01T09:34:54.280Z,87.98
2023-04-01T09:35:52.990Z,88.18
2023-04-01T09:36:52.937Z,88.18
2023-04-01T09:37:52.932Z,88.49
2023-04-01T09:38:52.932Z,88.59
2023-04-01T09:39:52.926Z,88.08
2023-04-01T09:40:52.896Z,90.12
2023-04-01T09:41:52.894Z,90.59
2023-04-01T09:42:52.868Z,90.29
2023-04-01T09:43:52.862Z,89.61
2023-04-01T09:44:52.886Z,89.78
2023-04-01T09:45:52.898Z,90.39
2023-04-01T09:46:52.838Z,90.39
2023-04-01T09:47:52.909Z,90.55
2023-04-01T09:48:52.839Z,89.67
2023-04-01T09:49:52.860Z,89.47
2023-04-01T09:50:52.811Z,90.49
2023-04-01T09:51:52.799Z,90.29
2023-04-01T09:52:52.756Z,90.19
2023-04-01T09:53:52.756Z,90.33
2023-04-01T09:54:52.765Z,91.15
2023-04-01T09:55:52.760Z,91.11
2023-04-01T09:56:52.789Z,90.90
2023-04-01T09:57:52.713Z,90.49
2023-04-01T09:58:52.720Z,90.49
2023-04-01T09:59:52.719Z,90.80
2023-04-01T10:00:52.654Z,90.39
2023-04-01T10:01:52.771Z,90.59
2023-04-01T10:02:52.725Z,89.97
2023-04-01T10:03:52.642Z,90.58
2023-04-01T10:04:53.613Z,90.53
2023-04-01T10:05:53.679Z,90.74
2023-04-01T10:06:52.583Z,90.23
2023-04-01T10:07:52.600Z,90.74
2023-04-01T10:08:52.628Z,90.02
2023-04-01T10:09:52.578Z,90.23
2023-04-01T10:10:52.620Z,90.74
2023-04-01T10:11:52.535Z,89.17
2023-04-01T10:12:52.563Z,90.02
2023-04-01T10:13:52.519Z,89.67
2023-04-01T10:14:52.534Z,89.58
2023-04-01T10:15:52.539Z,90.53
2023-04-01T10:16:54.331Z,89.58
2023-04-01T10:17:53.533Z,89.00
2023-04-01T10:18:52.478Z,89.61
2023-04-01T10:19:52.493Z,90.74
2023-04-01T10:20:52.434Z,90.59
2023-04-01T10:21:52.441Z,89.88
2023-04-01T10:22:52.413Z,89.43
2023-04-01T10:23:52.411Z,89.02
2023-04-01T10:24:52.424Z,88.92
2023-04-01T10:25:52.391Z,87.90
2023-04-01T10:26:52.357Z,88.88
2023-04-01T10:27:52.361Z,88.88
2023-04-01T10:28:52.399Z,89.65
2023-04-01T10:29:52.336Z,88.43
2023-04-01T10:30:52.336Z,87.98
2023-04-01T10:31:52.427Z,85.60
2023-04-01T10:32:52.382Z,85.96
2023-04-01T10:33:52.306Z,86.88
2023-04-01T10:34:52.263Z,84.12
2023-04-01T10:35:52.299Z,85.39
2023-04-01T10:36:52.281Z,85.80
2023-04-01T10:37:52.240Z,85.80
2023-04-01T10:38:52.248Z,86.83
2023-04-01T10:39:52.216Z,85.92
2023-04-01T10:40:52.189Z,84.74
2023-04-01T10:41:52.248Z,84.82
2023-04-01T10:42:52.197Z,85.94
2023-04-01T10:43:52.190Z,86.68
2023-04-01T10:44:52.197Z,85.61
2023-04-01T10:45:52.235Z,84.90
2023-04-01T10:46:52.132Z,85.37
2023-04-01T10:47:52.172Z,84.05
2023-04-01T10:48:52.171Z,84.09
2023-04-01T10:49:52.118Z,83.98
2023-04-01T10:50:52.111Z,84.41
2023-04-01T10:51:52.110Z,86.18
2023-04-01T10:52:52.120Z,87.41
2023-04-01T10:53:52.052Z,87.82
2023-04-01T10:54:52.078Z,88.90
2023-04-01T10:55:52.075Z,87.57
2023-04-01T10:56:52.058Z,88.02
2023-04-01T10:57:52.030Z,87.51
2023-04-01T10:58:52.032Z,89.92
2023-04-01T10:59:52.006Z,88.08
2023-04-01T11:00:52.062Z,87.16
2023-04-01T11:02:04.087Z,87.67
2023-04-01T11:02:54.112Z,87.61
2023-04-01T11:03:52.134Z,89.16
2023-04-01T11:04:51.941Z,88.31
2023-04-01T11:05:52.004Z,86.06
2023-04-01T11:06:51.952Z,86.33
2023-04-01T11:08:03.147Z,85.05
2023-04-01T11:08:53.940Z,86.33
2023-04-01T11:09:51.917Z,85.06
2023-04-01T11:10:51.905Z,82.68
2023-04-01T11:11:51.885Z,82.48
2023-04-01T11:12:51.897Z,81.67
2023-04-01T11:13:51.862Z,82.18
2023-04-01T11:14:51.824Z,82.38
2023-04-01T11:15:51.863Z,82.54
2023-04-01T11:16:51.847Z,82.18
2023-04-01T11:17:51.891Z,82.79
2023-04-01T11:18:51.821Z,83.44
2023-04-01T11:19:51.807Z,84.15
2023-04-01T11:20:51.777Z,84.09
2023-04-01T11:21:51.782Z,84.64
2023-04-01T11:22:51.802Z,85.86
2023-04-01T11:24:03.998Z,86.10
2023-04-01T11:24:53.722Z,86.82
2023-04-01T11:25:51.758Z,87.16
2023-04-01T11:26:51.806Z,88.08
2023-04-01T11:27:51.723Z,89.04
2023-04-01T11:28:51.723Z,90.06
2023-04-01T11:29:59.638Z,90.36
2023-04-01T11:30:53.666Z,90.26
2023-04-01T11:31:51.735Z,89.86
2023-04-01T11:32:51.715Z,91.79
2023-04-01T11:33:51.642Z,91.35
2023-04-01T11:34:51.618Z,91.35
2023-04-01T11:35:51.620Z,91.18
2023-04-01T11:36:51.657Z,90.83
2023-04-01T11:37:51.596Z,89.30
2023-04-01T11:38:51.564Z,90.26
2023-04-01T11:39:51.574Z,90.41
2023-04-01T11:40:51.585Z,90.55
2023-04-01T11:41:51.548Z,91.37
2023-04-01T11:42:51.551Z,91.47
2023-04-01T11:43:51.525Z,91.20
2023-04-01T11:44:51.501Z,92.59
2023-04-01T11:45:51.562Z,93.82
2023-04-01T11:46:51.522Z,92.96
2023-04-01T11:47:51.537Z,92.86
2023-04-01T11:48:51.454Z,92.86
2023-04-01T11:49:51.485Z,91.06
2023-04-01T11:50:51.417Z,90.45
2023-04-01T11:51:51.429Z,91.20
2023-04-01T11:52:51.456Z,92.02
2023-04-01T11:53:51.435Z,92.84
2023-04-01T11:54:51.398Z,91.86
2023-04-01T11:55:51.397Z,94.11
2023-04-01T11:56:51.433Z,94.89
2023-04-01T11:57:51.352Z,94.94
2023-04-01T11:58:51.389Z,94.74
2023-04-01T11:59:51.348Z,94.14
2023-04-01T12:00:51.305Z,94.14
2023-04-01T12:01:51.322Z,93.59
2023-04-01T12:02:51.379Z,93.59
2023-04-01T12:03:51.381Z,93.07
2023-04-01T12:04:51.324Z,93.84
2023-04-01T12:05:51.266Z,93.02
2023-04-01T12:06:51.280Z,93.32
2023-04-01T12:07:51.265Z,92.45
2023-04-01T12:08:51.238Z,92.80
2023-04-01T12:09:51.239Z,93.51
2023-04-01T12:10:51.233Z,93.10
2023-04-01T12:11:51.213Z,93.45
2023-04-01T12:13:00.825Z,93.96
2023-04-01T12:13:53.227Z,94.68
2023-04-01T12:14:51.225Z,93.66
2023-04-01T12:15:51.163Z,95.13
2023-04-01T12:16:51.183Z,94.37
2023-04-01T12:17:51.177Z,95.70
2023-04-01T12:18:51.112Z,95.80
2023-04-01T12:19:51.121Z,94.68
2023-04-01T12:20:51.132Z,95.13
2023-04-01T12:21:51.095Z,94.89
2023-04-01T12:22:51.093Z,96.51
2023-04-01T12:23:51.095Z,96.51
2023-04-01T12:24:51.035Z,95.09
2023-04-01T12:25:51.050Z,95.50
2023-04-01T12:26:51.067Z,95.13
2023-04-01T12:27:52.121Z,96.01
2023-04-01T12:28:51.999Z,95.90
2023-04-01T12:29:51.031Z,95.80
2023-04-01T12:30:50.988Z,95.39
2023-04-01T12:31:51.021Z,95.35
2023-04-01T12:32:51.046Z,94.89
2023-04-01T12:33:50.965Z,94.58
2023-04-01T12:34:50.940Z,95.29
2023-04-01T12:35:50.989Z,95.80
2023-04-01T12:36:51.473Z,95.45
2023-04-01T12:37:51.931Z,95.25
2023-04-01T12:38:50.894Z,94.58
2023-04-01T12:39:50.950Z,94.58
2023-04-01T12:40:50.900Z,95.45
2023-04-01T12:41:50.870Z,95.56
2023-04-01T12:42:51.846Z,95.20
2023-04-01T12:43:50.876Z,94.70
2023-04-01T12:44:50.865Z,95.31
2023-04-01T12:45:50.872Z,94.43
2023-04-01T12:46:50.837Z,94.43
2023-04-01T12:47:50.913Z,94.94
2023-04-01T12:48:51.960Z,94.33
2023-04-01T12:49:50.783Z,95.45
2023-04-01T12:50:50.790Z,94.78
2023-04-01T12:51:50.756Z,94.58
2023-04-01T12:52:50.741Z,95.56